createdAt,value
2019-04-07T00:00:54.507Z,23.03
2019-04-07T00:03:27.948Z,31.93
2019-04-07T00:06:01.454Z,29.43
2019-04-07T00:08:34.898Z,34.77
2019-04-07T00:11:08.403Z,33.47
2019-04-07T00:13:41.729Z,34.30
2019-04-07T00:16:15.713Z,37.00
2019-04-07T00:18:49.568Z,46.67
2019-04-07T00:21:22.931Z,41.60
2019-04-07T00:23:56.295Z,35.07
2019-04-07T00:26:29.747Z,28.97
2019-04-07T00:29:03.264Z,22.93
2019-04-07T00:31:36.678Z,21.67
2019-04-07T00:34:10.787Z,20.90
2019-04-07T00:36:44.767Z,24.17
2019-04-07T00:39:18.327Z,23.40
2019-04-07T00:41:51.836Z,23.77
2019-04-07T00:44:25.195Z,21.17
2019-04-07T00:46:58.629Z,20.00
2019-04-07T00:49:32.305Z,19.20
2019-04-07T00:52:08.553Z,19.00
2019-04-07T00:54:42.411Z,18.83
2019-04-07T00:57:16.397Z,21.67
2019-04-07T00:59:50.579Z,21.77
2019-04-07T01:02:24.489Z,21.57
2019-04-07T01:04:58.371Z,20.63
2019-04-07T01:07:31.820Z,24.97
2019-04-07T01:10:06.177Z,23.23
2019-04-07T01:12:40.017Z,25.73
2019-04-07T01:15:14.050Z,23.27
2019-04-07T01:17:47.524Z,27.00
2019-04-07T01:20:21.599Z,24.53
2019-04-07T01:22:55.273Z,26.70
2019-04-07T01:25:29.257Z,23.37
2019-04-07T01:28:02.783Z,22.30
2019-04-07T01:30:36.941Z,20.77
2019-04-07T01:33:10.485Z,21.10
2019-04-07T01:35:48.124Z,20.10
2019-04-07T01:38:19.227Z,20.17
2019-04-07T01:40:57.142Z,21.27
2019-04-07T01:43:44.713Z,18.80
2019-04-07T01:46:26.172Z,20.27
2019-04-07T01:49:13.498Z,20.20
2019-04-07T01:51:48.801Z,22.67
2019-04-07T01:54:27.152Z,21.20
2019-04-07T01:57:02.344Z,26.53
2019-04-07T01:59:49.958Z,23.30
2019-04-07T02:02:41.342Z,22.50
2019-04-07T02:05:31.654Z,23.27
2019-04-07T02:08:22.107Z,25.40
2019-04-07T02:11:13.626Z,23.93
2019-04-07T02:13:48.721Z,24.23
2019-04-07T02:16:26.994Z,20.47
2019-04-07T02:19:05.110Z,20.10
2019-04-07T02:21:53.005Z,23.87
2019-04-07T02:24:28.429Z,26.77
2019-04-07T02:27:06.044Z,26.17
2019-04-07T02:29:53.176Z,24.43
2019-04-07T02:32:44.431Z,24.37
2019-04-07T02:35:37.753Z,20.43
2019-04-07T02:38:17.659Z,22.23
2019-04-07T02:40:55.755Z,23.23
2019-04-07T02:43:36.514Z,23.27
2019-04-07T02:46:27.192Z,23.03
2019-04-07T02:52:05.789Z,21.53
2019-04-07T02:54:44.485Z,22.47
2019-04-07T02:57:19.541Z,21.33
2019-04-07T02:59:55.755Z,21.80
2019-04-07T03:02:34.632Z,20.90
2019-04-07T03:05:12.489Z,22.73
2019-04-07T03:07:48.687Z,26.47
2019-04-07T03:10:33.421Z,28.33
2019-04-07T03:13:11.170Z,27.60
2019-04-07T03:15:49.120Z,27.97
2019-04-07T03:21:29.272Z,28.00
2019-04-07T03:27:16.344Z,24.17
2019-04-07T03:30:06.570Z,25.80
2019-04-07T03:33:00.224Z,24.13
2019-04-07T03:35:35.352Z,24.50
2019-04-07T03:38:12.028Z,22.10
2019-04-07T03:40:56.934Z,21.60
2019-04-07T03:43:47.118Z,21.53
2019-04-07T03:46:22.175Z,23.20
2019-04-07T03:49:13.493Z,23.13
2019-04-07T03:51:58.061Z,23.67
2019-04-07T03:54:39.979Z,27.80
2019-04-07T03:57:17.986Z,27.80
2019-04-07T03:59:55.871Z,25.20
2019-04-07T04:02:31.581Z,24.03
2019-04-07T04:05:19.351Z,24.20
2019-04-07T04:07:54.645Z,25.37
2019-04-07T04:10:30.125Z,25.03
2019-04-07T04:13:07.906Z,24.63
2019-04-07T04:15:43.562Z,26.70
2019-04-07T04:18:16.978Z,24.20
2019-04-07T04:20:50.479Z,22.97
2019-04-07T04:23:23.825Z,22.00
2019-04-07T04:25:57.250Z,25.27
2019-04-07T04:28:30.768Z,25.43
2019-04-07T04:31:04.657Z,26.03
2019-04-07T04:33:38.174Z,26.67
2019-04-07T04:36:11.525Z,25.20
2019-04-07T04:38:44.917Z,23.80
2019-04-07T04:41:19.211Z,23.10
2019-04-07T04:43:53.469Z,24.20
2019-04-07T04:46:27.223Z,27.80
2019-04-07T04:49:00.675Z,24.87
2019-04-07T04:51:37.076Z,28.83
2019-04-07T04:54:09.117Z,24.50
2019-04-07T04:56:43.397Z,28.70
2019-04-07T04:59:16.896Z,30.63
2019-04-07T05:01:51.092Z,27.40
2019-04-07T05:04:24.645Z,25.30
2019-04-07T05:06:58.150Z,26.70
2019-04-07T05:09:41.099Z,24.97
2019-04-07T05:12:06.940Z,23.63
2019-04-07T05:14:40.292Z,25.60
2019-04-07T05:17:13.672Z,31.20
2019-04-07T05:19:47.072Z,35.67
2019-04-07T05:22:20.429Z,34.73
2019-04-07T05:24:53.812Z,31.63
2019-04-07T05:27:27.685Z,29.03
2019-04-07T05:30:01.234Z,27.80
2019-04-07T05:32:34.988Z,25.80
2019-04-07T05:35:08.908Z,25.43
2019-04-07T05:37:42.554Z,25.00
2019-04-07T05:40:16.647Z,26.20
2019-04-07T05:42:49.999Z,23.97
2019-04-07T05:45:23.845Z,23.33
2019-04-07T05:47:57.865Z,23.27
2019-04-07T05:50:31.852Z,24.20
2019-04-07T05:53:06.825Z,22.93
2019-04-07T05:55:40.589Z,23.60
2019-04-07T05:58:15.670Z,24.40
2019-04-07T06:00:50.167Z,24.10
2019-04-07T06:03:23.698Z,23.03
2019-04-07T06:05:58.034Z,22.03
2019-04-07T06:08:37.136Z,23.87
2019-04-07T06:11:06.577Z,23.40
2019-04-07T06:13:41.876Z,22.93
2019-04-07T06:16:15.186Z,25.07
2019-04-07T06:18:48.622Z,25.27
2019-04-07T06:21:22.216Z,23.97
2019-04-07T06:23:59.398Z,23.37
2019-04-07T06:26:31.250Z,23.80
2019-04-07T06:29:04.851Z,25.23
2019-04-07T06:31:38.312Z,22.43
2019-04-07T06:34:12.196Z,24.57
2019-04-07T06:36:46.302Z,23.03
2019-04-07T06:39:21.433Z,23.43
2019-04-07T06:41:55.120Z,23.07
2019-04-07T06:44:29.037Z,22.13
2019-04-07T06:47:19.003Z,22.43
2019-04-07T06:49:57.497Z,22.90
2019-04-07T06:52:42.079Z,22.57
2019-04-07T06:55:26.622Z,22.30
2019-04-07T06:58:00.347Z,21.83
2019-04-07T07:00:40.962Z,22.30
2019-04-07T07:03:21.810Z,23.15
2019-04-07T07:06:01.112Z,21.40
2019-04-07T07:08:53.010Z,21.87
2019-04-07T07:11:44.072Z,21.73
2019-04-07T07:14:38.459Z,21.40
2019-04-07T07:17:14.960Z,21.65
2019-04-07T07:20:03.585Z,20.62
2019-04-07T07:22:40.279Z,19.42
2019-04-07T07:25:13.301Z,20.25
2019-04-07T07:27:46.624Z,18.65
2019-04-07T07:30:20.624Z,19.02
2019-04-07T07:32:55.298Z,19.75
2019-04-07T07:35:28.787Z,19.07
2019-04-07T07:38:02.760Z,19.37
2019-04-07T07:40:36.159Z,19.32
2019-04-07T07:43:09.780Z,18.67
2019-04-07T07:45:46.991Z,18.05
2019-04-07T07:48:20.872Z,17.62
2019-04-07T07:50:53.842Z,18.17
2019-04-07T07:53:28.633Z,17.55
2019-04-07T07:56:02.131Z,18.05
2019-04-07T07:58:35.589Z,18.12
2019-04-07T08:01:11.281Z,18.10
2019-04-07T08:03:44.237Z,17.80
2019-04-07T08:06:18.459Z,18.02
2019-04-07T08:08:53.637Z,17.32
2019-04-07T08:11:30.773Z,18.05
2019-04-07T08:14:02.426Z,18.32
2019-04-07T08:16:35.803Z,18.02
2019-04-07T08:19:10.077Z,18.92
2019-04-07T08:21:45.429Z,18.02
2019-04-07T08:24:19.209Z,17.62
2019-04-07T08:26:56.310Z,18.60
2019-04-07T08:29:28.019Z,18.55
2019-04-07T08:32:02.098Z,17.73
2019-04-07T08:34:36.144Z,18.05
2019-04-07T08:37:09.629Z,17.92
2019-04-07T08:39:43.301Z,18.70
2019-04-07T08:42:18.702Z,18.80
2019-04-07T08:44:52.293Z,17.70
2019-04-07T08:47:25.859Z,18.05
2019-04-07T08:49:59.794Z,17.45
2019-04-07T08:52:33.398Z,18.00
2019-04-07T08:55:07.292Z,17.02
2019-04-07T08:57:41.323Z,16.75
2019-04-07T09:00:17.344Z,16.52
2019-04-07T09:03:01.571Z,17.12
2019-04-07T09:05:30.773Z,17.20
2019-04-07T09:08:05.584Z,15.72
2019-04-07T09:10:49.546Z,16.45
2019-04-07T09:13:22.878Z,16.25
2019-04-07T09:16:04.660Z,16.45
2019-04-07T09:21:50.237Z,17.02
2019-04-07T09:24:40.343Z,16.77
2019-04-07T09:27:30.601Z,17.95
2019-04-07T09:30:10.161Z,15.68
2019-04-07T09:32:48.624Z,16.87
2019-04-07T09:35:26.822Z,16.55
2019-04-07T09:38:14.391Z,15.50
2019-04-07T09:41:06.276Z,15.88
2019-04-07T09:43:46.819Z,16.23
2019-04-07T09:46:27.616Z,15.43
2019-04-07T09:49:03.419Z,14.55
2019-04-07T09:51:44.898Z,14.25
2019-04-07T09:54:22.204Z,14.45
2019-04-07T09:57:03.415Z,13.30
2019-04-07T09:59:50.905Z,13.35
2019-04-07T10:02:25.079Z,13.22
2019-04-07T10:05:00.223Z,13.40
2019-04-07T10:07:51.836Z,12.35
2019-04-07T10:10:32.448Z,13.10
2019-04-07T10:13:07.709Z,11.88
2019-04-07T10:15:43.196Z,11.53
2019-04-07T10:18:18.231Z,11.90
2019-04-07T10:21:09.942Z,11.55
2019-04-07T10:23:45.854Z,12.45
2019-04-07T10:26:36.999Z,11.40
2019-04-07T10:29:15.404Z,11.60
2019-04-07T10:31:50.435Z,12.05
2019-04-07T10:34:28.457Z,11.88
2019-04-07T10:37:06.783Z,11.38
2019-04-07T10:39:59.365Z,12.10
2019-04-07T10:42:38.021Z,11.83
2019-04-07T10:45:36.345Z,11.45
2019-04-07T10:48:11.737Z,11.68
2019-04-07T10:50:46.952Z,11.73
2019-04-07T10:53:40.559Z,11.45
2019-04-07T10:56:16.315Z,11.18
2019-04-07T10:59:07.615Z,11.15
2019-04-07T11:04:45.070Z,9.85
2019-04-07T11:07:20.511Z,10.08
2019-04-07T11:10:07.352Z,11.38
2019-04-07T11:12:54.847Z,10.15
2019-04-07T11:15:30.655Z,10.13
2019-04-07T11:18:08.758Z,10.72
2019-04-07T11:20:47.156Z,10.58
2019-04-07T11:23:22.961Z,11.88
2019-04-07T11:25:58.030Z,11.00
2019-04-07T11:28:36.221Z,11.38
2019-04-07T11:31:11.257Z,11.38
2019-04-07T11:33:48.976Z,10.78
2019-04-07T11:36:24.471Z,11.00
2019-04-07T11:39:05.824Z,11.28
2019-04-07T11:41:49.870Z,11.28
2019-04-07T11:44:41.224Z,10.05
2019-04-07T11:47:19.638Z,10.50
2019-04-07T11:49:55.199Z,10.00
2019-04-07T11:52:33.192Z,9.98
2019-04-07T11:55:11.978Z,10.45
2019-04-07T11:58:06.360Z,10.40
2019-04-07T12:00:40.366Z,9.53
2019-04-07T12:03:18.278Z,10.70
2019-04-07T12:05:53.953Z,9.60
2019-04-07T12:08:36.290Z,10.08
2019-04-07T12:11:30.994Z,9.95
2019-04-07T12:14:06.374Z,9.68
2019-04-07T12:16:46.889Z,9.50
2019-04-07T12:19:31.088Z,9.68
2019-04-07T12:22:13.197Z,9.00
2019-04-07T12:25:06.820Z,9.18
2019-04-07T12:27:58.107Z,8.48
2019-04-07T12:30:42.603Z,9.85
2019-04-07T12:33:29.652Z,9.73
2019-04-07T12:36:17.279Z,9.25
2019-04-07T12:39:01.788Z,9.78
2019-04-07T12:41:43.690Z,9.45
2019-04-07T12:44:19.104Z,8.83
2019-04-07T12:46:57.220Z,10.00
2019-04-07T12:49:45.743Z,9.55
2019-04-07T12:52:21.799Z,8.90
2019-04-07T12:55:17.502Z,9.70
2019-04-07T12:57:59.864Z,8.53
2019-04-07T13:00:53.063Z,8.33
2019-04-07T13:03:26.072Z,9.48
2019-04-07T13:06:06.354Z,9.55
2019-04-07T13:08:40.679Z,8.70
2019-04-07T13:11:33.999Z,8.40
2019-04-07T13:14:14.026Z,8.78
2019-04-07T13:17:05.414Z,8.70
2019-04-07T13:19:48.913Z,8.53
2019-04-07T13:22:22.791Z,9.30
2019-04-07T13:25:01.753Z,8.03
2019-04-07T13:27:50.135Z,8.20
2019-04-07T13:30:41.017Z,7.83
2019-04-07T13:33:26.451Z,8.20
2019-04-07T13:36:15.920Z,8.13
2019-04-07T13:39:07.352Z,8.55
2019-04-07T13:41:55.277Z,7.87
2019-04-07T13:44:46.237Z,7.87
2019-04-07T13:47:22.011Z,8.03
2019-04-07T13:50:06.311Z,7.90
2019-04-07T13:52:59.137Z,8.20
2019-04-07T13:55:46.375Z,7.42
2019-04-07T13:58:21.860Z,8.00
2019-04-07T14:01:17.994Z,7.30
2019-04-07T14:03:58.939Z,7.45
2019-04-07T14:06:49.390Z,7.80
2019-04-07T14:09:31.673Z,7.67
2019-04-07T14:12:10.155Z,8.33
2019-04-07T14:14:44.636Z,8.20
2019-04-07T14:17:22.926Z,8.03
2019-04-07T14:20:00.898Z,8.50
2019-04-07T14:22:48.735Z,8.38
2019-04-07T14:25:29.860Z,8.65
2019-04-07T14:28:21.063Z,7.83
2019-04-07T14:31:12.868Z,8.28
2019-04-07T14:33:48.108Z,7.50
2019-04-07T14:36:41.568Z,7.90
2019-04-07T14:39:17.976Z,7.92
2019-04-07T14:42:06.334Z,7.28
2019-04-07T14:44:39.067Z,7.90
2019-04-07T14:47:16.553Z,7.97
2019-04-07T14:49:55.098Z,7.35
2019-04-07T14:52:39.422Z,7.62
2019-04-07T14:58:23.240Z,7.08
2019-04-07T15:01:06.740Z,7.83
2019-04-07T15:03:39.551Z,7.78
2019-04-07T15:06:12.981Z,6.83
2019-04-07T15:08:53.770Z,7.05
2019-04-07T15:11:29.697Z,7.87
2019-04-07T15:14:04.172Z,7.37
2019-04-07T15:16:38.265Z,7.90
2019-04-07T15:19:11.841Z,8.23
2019-04-07T15:21:45.262Z,7.65
2019-04-07T15:24:18.745Z,7.35
2019-04-07T15:26:53.004Z,6.95
2019-04-07T15:29:26.453Z,7.50
2019-04-07T15:31:59.871Z,7.30
2019-04-07T15:34:34.247Z,7.40
2019-04-07T15:37:07.876Z,7.62
2019-04-07T15:39:41.609Z,7.65
2019-04-07T15:42:24.673Z,7.35
2019-04-07T15:44:50.856Z,7.92
2019-04-07T15:47:24.423Z,7.40
2019-04-07T15:49:59.266Z,7.58
2019-04-07T15:52:33.031Z,7.10
2019-04-07T15:55:07.207Z,7.42
2019-04-07T15:57:40.780Z,7.47
2019-04-07T16:00:15.332Z,7.62
2019-04-07T16:02:50.190Z,7.60
2019-04-07T16:05:23.860Z,7.90
2019-04-07T16:07:57.805Z,7.92
2019-04-07T16:10:31.334Z,8.03
2019-04-07T16:13:04.867Z,7.90
2019-04-07T16:15:38.397Z,7.87
2019-04-07T16:18:12.565Z,7.55
2019-04-07T16:20:46.055Z,7.35
2019-04-07T16:23:19.603Z,7.72
2019-04-07T16:25:54.975Z,7.95
2019-04-07T16:28:28.239Z,7.97
2019-04-07T16:31:01.611Z,7.95
2019-04-07T16:33:36.081Z,7.80
2019-04-07T16:36:10.766Z,8.20
2019-04-07T16:38:44.364Z,8.60
2019-04-07T16:41:17.891Z,8.18
2019-04-07T16:43:51.823Z,8.33
2019-04-07T16:46:25.395Z,8.85
2019-04-07T16:48:59.722Z,8.73
2019-04-07T16:51:34.281Z,8.05
2019-04-07T16:54:11.652Z,8.75
2019-04-07T16:56:44.175Z,8.53
2019-04-07T16:59:19.300Z,9.00
2019-04-07T17:01:52.980Z,8.43
2019-04-07T17:04:26.815Z,9.30
2019-04-07T17:07:04.424Z,9.20
2019-04-07T17:09:36.608Z,8.93
2019-04-07T17:12:11.590Z,8.88
2019-04-07T17:14:45.977Z,8.85
2019-04-07T17:17:21.700Z,8.50
2019-04-07T17:19:57.354Z,8.53
2019-04-07T17:22:30.405Z,8.65
2019-04-07T17:25:07.901Z,7.78
2019-04-07T17:27:42.376Z,7.70
2019-04-07T17:30:18.539Z,8.50
2019-04-07T17:32:52.222Z,8.85
2019-04-07T17:35:26.715Z,8.05
2019-04-07T17:38:04.614Z,8.38
2019-04-07T17:40:39.187Z,8.50
2019-04-07T17:43:25.800Z,8.90
2019-04-07T17:45:54.647Z,8.00
2019-04-07T17:51:36.328Z,8.08
2019-04-07T17:54:10.177Z,8.98
2019-04-07T17:56:54.926Z,8.70
2019-04-07T17:59:30.349Z,9.50
2019-04-07T18:02:19.284Z,9.40
2019-04-07T18:04:55.094Z,8.65
2019-04-07T18:07:46.626Z,9.25
2019-04-07T18:10:30.693Z,8.05
2019-04-07T18:13:12.071Z,8.68
2019-04-07T18:16:06.268Z,8.80
2019-04-07T18:18:59.316Z,9.55
2019-04-07T18:21:45.829Z,8.85
2019-04-07T18:24:35.609Z,8.90
2019-04-07T18:27:19.075Z,8.65
2019-04-07T18:33:06.566Z,8.90
2019-04-07T18:35:42.045Z,9.28
2019-04-07T18:38:29.724Z,9.40
2019-04-07T18:41:10.477Z,8.63
2019-04-07T18:43:53.814Z,7.90
2019-04-07T18:46:29.741Z,9.00
2019-04-07T18:49:05.977Z,8.75
2019-04-07T18:51:58.086Z,8.78
2019-04-07T18:57:30.567Z,9.88
2019-04-07T19:00:16.932Z,8.83
2019-04-07T19:02:57.847Z,8.45
2019-04-07T19:05:35.098Z,9.38
2019-04-07T19:08:25.843Z,8.95
2019-04-07T19:11:12.840Z,9.78
2019-04-07T19:14:14.277Z,8.50
2019-04-07T19:16:49.251Z,9.38
2019-04-07T19:19:27.757Z,9.83
2019-04-07T19:22:21.155Z,11.18
2019-04-07T19:24:55.859Z,9.40
2019-04-07T19:27:33.848Z,10.75
2019-04-07T19:30:14.451Z,10.35
2019-04-07T19:32:52.637Z,11.28
2019-04-07T19:35:44.934Z,12.13
2019-04-07T19:38:31.924Z,13.50
2019-04-07T19:41:10.957Z,11.75
2019-04-07T19:43:50.025Z,11.57
2019-04-07T19:46:44.160Z,11.88
2019-04-07T19:49:27.698Z,10.53
2019-04-07T19:52:17.737Z,10.68
2019-04-07T19:55:01.863Z,10.50
2019-04-07T19:57:49.029Z,10.15
2019-04-07T20:00:26.323Z,10.70
2019-04-07T20:03:17.837Z,10.80
2019-04-07T20:06:09.351Z,11.05
2019-04-07T20:08:44.301Z,10.90
2019-04-07T20:11:37.081Z,12.07
2019-04-07T20:14:14.433Z,11.10
2019-04-07T20:16:49.792Z,10.73
2019-04-07T20:19:33.645Z,10.57
2019-04-07T20:22:08.996Z,10.40
2019-04-07T20:24:49.167Z,11.27
2019-04-07T20:27:29.838Z,9.83
2019-04-07T20:33:18.682Z,11.23
2019-04-07T20:36:17.255Z,10.70
2019-04-07T20:38:46.734Z,12.23
2019-04-07T20:41:24.619Z,11.90
2019-04-07T20:44:16.020Z,11.70
2019-04-07T20:47:00.763Z,10.97
2019-04-07T20:49:43.608Z,9.97
2019-04-07T20:52:34.863Z,10.83
2019-04-07T20:55:19.248Z,11.27
2019-04-07T20:58:11.581Z,10.73
2019-04-07T21:00:56.078Z,10.80
2019-04-07T21:03:25.329Z,11.93
2019-04-07T21:06:18.909Z,12.60
2019-04-07T21:09:03.869Z,12.63
2019-04-07T21:11:55.059Z,12.30
2019-04-07T21:14:38.989Z,12.77
2019-04-07T21:20:34.198Z,12.77
2019-04-07T21:23:21.733Z,12.00
2019-04-07T21:26:05.829Z,11.97
2019-04-07T21:28:40.776Z,13.80
2019-04-07T21:31:32.551Z,13.57
2019-04-07T21:34:16.659Z,13.03
2019-04-07T21:37:10.692Z,13.57
2019-04-07T21:39:43.360Z,12.97
2019-04-07T21:42:34.373Z,12.40
2019-04-07T21:45:35.378Z,13.43
2019-04-07T21:48:11.720Z,12.93
2019-04-07T21:50:46.848Z,13.30
2019-04-07T21:53:23.829Z,14.20
2019-04-07T21:56:01.726Z,13.30
2019-04-07T21:58:54.879Z,13.47
2019-04-07T22:01:37.691Z,12.17
2019-04-07T22:04:12.546Z,13.20
2019-04-07T22:06:53.565Z,12.53
2019-04-07T22:09:34.378Z,13.07
2019-04-07T22:12:08.530Z,12.23
2019-04-07T22:14:44.220Z,14.33
2019-04-07T22:17:17.173Z,13.33
2019-04-07T22:19:50.528Z,13.40
2019-04-07T22:22:26.300Z,13.60
2019-04-07T22:24:59.920Z,12.43
2019-04-07T22:27:33.613Z,12.73
2019-04-07T22:30:09.128Z,15.07
2019-04-07T22:32:42.804Z,16.40
2019-04-07T22:35:16.885Z,14.00
2019-04-07T22:37:51.090Z,14.60
2019-04-07T22:40:25.374Z,15.03
2019-04-07T22:42:59.615Z,15.20
2019-04-07T22:45:33.079Z,15.37
2019-04-07T22:48:08.257Z,13.77
2019-04-07T22:50:41.879Z,12.80
2019-04-07T22:53:15.449Z,12.70
2019-04-07T22:55:48.851Z,12.73
2019-04-07T22:58:22.311Z,13.27
2019-04-07T23:00:55.770Z,12.47
2019-04-07T23:03:29.375Z,13.63
2019-04-07T23:06:03.159Z,12.17
2019-04-07T23:08:36.983Z,13.23
2019-04-07T23:11:10.445Z,12.50
2019-04-07T23:13:43.992Z,14.90
2019-04-07T23:16:18.650Z,16.17
2019-04-07T23:18:52.403Z,13.90
2019-04-07T23:21:26.760Z,16.40
2019-04-07T23:24:01.241Z,16.13
2019-04-07T23:26:34.639Z,16.60
2019-04-07T23:29:07.998Z,15.40
2019-04-07T23:31:41.547Z,15.30
2019-04-07T23:34:15.024Z,15.37
2019-04-07T23:36:48.488Z,15.00
2019-04-07T23:39:21.903Z,16.83
2019-04-07T23:41:55.294Z,17.53
2019-04-07T23:44:29.637Z,18.57
2019-04-07T23:47:03.703Z,18.07
2019-04-07T23:49:37.206Z,16.93
2019-04-07T23:52:11.090Z,16.43
2019-04-07T23:54:44.560Z,15.90
2019-04-07T23:57:18.100Z,15.50
2019-04-07T23:59:51.569Z,15.43
